SondeTracker

Meteorological Radiosondes Database

Operations

Sounding was ended - last measurement: 2022-12-07 12:58:41z

MAP
About Radiosonde

Number: D22042376 ([BC]22042376)

Launch Site: Santa Teresa [NM] (US)

Type: DFM

AUX: NO

Frequency: MHz

Max Speed: 176 km/h at 12810 m

Average Speed: 138.74 km/h

Max Altitude: 28749 m

Average Ascent Speed: 5.35 m/s

Average Descent Speed: 12.80 m/s

Status: UNKNOWN

Status Changes
Launch Site Type AUX Frequency Status Finder Landing Point Description Changes made by
APRS Statistics

Received Frames: 42

First Frame [UTC]: 2022-12-07 11:37:51z

Last Frame [UTC]: 2022-12-07 12:58:41z

Receivers: KB5VL-14

Flight Time: 01:20:50 h

Distance From First Measurement: 132.17 km

Nearest City: Artesia [NM] (US) [47.35 km]

Nearest Hunter: [0.00 km]

Ground Altitude: 1355 m

Distance from QTH: 0.00 km

APRS Data
Receiver Number Date/Time [UTC] φ λ Course [°] Speed [km/h] Altitude [m] Description
KB5VL-14D220423762022-12-07 12:58:4132.519-104.74745945140Clb=-6.9m/s Type=DFM17 ser=[BC]22042376 Details on http://radiosondy.info
KB5VL-14D220423762022-12-07 12:58:2632.5165-104.74947965242Clb=-6.8m/s Type=DFM17 ser=[BC]22042376 Details on http://radiosondy.info
KB5VL-14D220423762022-12-07 12:57:5932.4868-104.791561156404Clb=-6.7m/s Type=DFM17 ser=[BC]22042376 Details on http://radiosondy.info
KB5VL-14D220423762022-12-07 12:57:5832.4843-104.795551136500Clb=-7.0m/s Type=DFM17 ser=[BC]22042376 Details on http://radiosondy.info
KB5VL-14D220423762022-12-07 12:57:5732.4819-104.8581156597Clb=-7.0m/s Type=DFM17 ser=[BC]22042376 Details on http://radiosondy.info
KB5VL-14D220423762022-12-07 12:57:4932.4585-104.84581197682Clb=-8.1m/s Type=DFM17 ser=[BC]22042376 Details on http://radiosondy.info
KB5VL-14D220423762022-12-07 12:57:4732.456-104.844561197803Clb=-8.5m/s Type=DFM17 ser=[BC]22042376 Details on http://radiosondy.info
KB5VL-14D220423762022-12-07 12:57:4632.4534-104.849551197927Clb=-8.4m/s Type=DFM17 ser=[BC]22042376 Details on http://radiosondy.info
KB5VL-14D220423762022-12-07 12:57:4532.4507-104.853551248050Clb=-8.4m/s Type=DFM17 ser=[BC]22042376 Details on http://radiosondy.info
KB5VL-14D220423762022-12-07 12:55:0032.4254-104.89491399132Clb=-8.5m/s Type=DFM17 ser=[BC]22042376 Details on http://radiosondy.info
KB5VL-14D220423762022-12-07 12:54:3732.4219-104.895481419256Clb=-8.1m/s Type=DFM17 ser=[BC]22042376 Details on http://radiosondy.info
KB5VL-14D220423762022-12-07 12:54:1232.4183-104.899471509377Clb=-8.7m/s Type=DFM17 ser=[BC]22042376 Details on http://radiosondy.info
KB5VL-14D220423762022-12-07 12:49:2532.386-104.9546515410676Clb=-9.0m/s Type=DFM17 ser=[BC]22042376 Details on http://radiosondy.info
KB5VL-14D220423762022-12-07 12:48:5632.3835-104.966515610808Clb=-9.2m/s Type=DFM17 ser=[BC]22042376 Details on http://radiosondy.info
KB5VL-14D220423762022-12-07 12:48:2832.3811-104.9666615610942Clb=-9.2m/s Type=DFM17 ser=[BC]22042376 Details on http://radiosondy.info
KB5VL-14D220423762022-12-07 12:47:5732.3785-104.9736715711084Clb=-8.8m/s Type=DFM17 ser=[BC]22042376 Details on http://radiosondy.info
KB5VL-14D220423762022-12-07 12:43:5332.3585-105.037015613360Clb=-22.0m/s Type=DFM17 ser=[BC]22042376 Details on http://radiosondy.info
KB5VL-14D220423762022-12-07 12:43:3132.3562-105.0366515913694Clb=-22.3m/s Type=DFM17 ser=[BC]22042376 Details on http://radiosondy.info
KB5VL-14D220423762022-12-07 12:43:1932.3535-105.0436515614036Clb=-22.5m/s Type=DFM17 ser=[BC]22042376 Details on http://radiosondy.info
KB5VL-14D220423762022-12-07 12:43:0332.3512-105.0496811714385Clb=-23.8m/s Type=DFM17 ser=[BC]22042376 Details on http://radiosondy.info
KB5VL-14D220423762022-12-07 12:27:5632.3481-105.38111314328749Clb=0.4m/s Type=DFM17 ser=[BC]22042376 Details on http://radiosondy.info
KB5VL-14D220423762022-12-07 12:27:1232.3499-105.38811314828652Clb=6.4m/s Type=DFM17 ser=[BC]22042376 Details on http://radiosondy.info
KB5VL-14D220423762022-12-07 12:26:3632.3514-105.39411914428549Clb=5.1m/s Type=DFM17 ser=[BC]22042376 Details on http://radiosondy.info
KB5VL-14D220423762022-12-07 12:25:5832.353-105.410810228447Clb=11.4m/s Type=DFM17 ser=[BC]22042376 Details on http://radiosondy.info
KB5VL-14D220423762022-12-07 12:22:4932.3601-105.4441039427392Clb=6.8m/s Type=DFM17 ser=[BC]22042376 Details on http://radiosondy.info
KB5VL-14D220423762022-12-07 12:22:4332.3608-105.4481079627306Clb=6.0m/s Type=DFM17 ser=[BC]22042376 Details on http://radiosondy.info
KB5VL-14D220423762022-12-07 12:22:1732.3614-105.4528910627232Clb=5.0m/s Type=DFM17 ser=[BC]22042376 Details on http://radiosondy.info
KB5VL-14D220423762022-12-07 11:51:1332.3062-105.8667313915522Clb=4.9m/s Type=DFM17 ser=[BC]22042376 Details on http://radiosondy.info
KB5VL-14D220423762022-12-07 11:51:1232.3043-105.8716213115454Clb=3.9m/s Type=DFM17 ser=[BC]22042376 Details on http://radiosondy.info
KB5VL-14D220423762022-12-07 11:51:0632.3022-105.8776812615384Clb=4.0m/s Type=DFM17 ser=[BC]22042376 Details on http://radiosondy.info
KB5VL-14D220423762022-12-07 11:50:4532.3004-105.8826813915311Clb=5.5m/s Type=DFM17 ser=[BC]22042376 Details on http://radiosondy.info
KB5VL-14D220423762022-12-07 11:46:3532.2848-105.9336214614677Clb=5.1m/s Type=DFM17 ser=[BC]22042376 Details on http://radiosondy.info
KB5VL-14D220423762022-12-07 11:46:0632.2825-105.9396614814610Clb=5.3m/s Type=DFM17 ser=[BC]22042376 Details on http://radiosondy.info
KB5VL-14D220423762022-12-07 11:45:3932.2803-105.9456715214541Clb=5.9m/s Type=DFM17 ser=[BC]22042376 Details on http://radiosondy.info
KB5VL-14D220423762022-12-07 11:45:1032.2778-105.9516516314475Clb=4.1m/s Type=DFM17 ser=[BC]22042376 Details on http://radiosondy.info
KB5VL-14D220423762022-12-07 11:43:2132.2496-106.0085516913771Clb=6.4m/s Type=DFM17 ser=[BC]22042376 Details on http://radiosondy.info
KB5VL-14D220423762022-12-07 11:43:0532.2462-106.0146416913666Clb=7.7m/s Type=DFM17 ser=[BC]22042376 Details on http://radiosondy.info
KB5VL-14D220423762022-12-07 11:42:5232.2432-106.0216516713577Clb=4.5m/s Type=DFM17 ser=[BC]22042376 Details on http://radiosondy.info
KB5VL-14D220423762022-12-07 11:42:3932.2404-106.0276317013496Clb=4.4m/s Type=DFM17 ser=[BC]22042376 Details on http://radiosondy.info
KB5VL-14D220423762022-12-07 11:38:5032.2161-106.0926617612810Clb=5.1m/s Type=DFM Details on http://radiosondy.info
KB5VL-14D220423762022-12-07 11:38:2032.2131-106.0996317212742Clb=4.7m/s Type=DFM Details on http://radiosondy.info
KB5VL-14D220423762022-12-07 11:37:5132.2103-106.1066717212674Clb=3.9m/s Type=DFM Details on http://radiosondy.info